sensor_id;sensor_type;location;lat;lon;timestamp;pressure;altitude;pressure_sealevel;temperature;humidity
42671;BME280;28283;55.426;37.756;2023-02-13T00:02:25;99680.78;;;-8.22;81.22
42671;BME280;28283;55.426;37.756;2023-02-13T00:07:26;99658.81;;;-8.35;81.73
42671;BME280;28283;55.426;37.756;2023-02-13T00:12:27;99672.94;;;-8.22;81.29
42671;BME280;28283;55.426;37.756;2023-02-13T00:17:28;99626.38;;;-8.65;82.66
42671;BME280;28283;55.426;37.756;2023-02-13T00:22:29;99624.34;;;-8.77;82.97
42671;BME280;28283;55.426;37.756;2023-02-13T00:27:30;99640.72;;;-8.56;83.61
42671;BME280;28283;55.426;37.756;2023-02-13T00:32:30;99626.13;;;-8.60;84.31
42671;BME280;28283;55.426;37.756;2023-02-13T00:37:32;99633.69;;;-8.54;83.73
42671;BME280;28283;55.426;37.756;2023-02-13T00:42:33;99537.28;;;-9.09;83.34
42671;BME280;28283;55.426;37.756;2023-02-13T00:47:34;99532.97;;;-9.10;83.92
42671;BME280;28283;55.426;37.756;2023-02-13T00:52:34;99550.31;;;-9.09;84.21
42671;BME280;28283;55.426;37.756;2023-02-13T00:57:35;99596.50;;;-8.76;83.91
42671;BME280;28283;55.426;37.756;2023-02-13T01:02:35;99585.88;;;-8.72;84.05
42671;BME280;28283;55.426;37.756;2023-02-13T01:07:36;99567.09;;;-8.78;83.15
42671;BME280;28283;55.426;37.756;2023-02-13T01:12:37;99558.69;;;-8.66;83.63
42671;BME280;28283;55.426;37.756;2023-02-13T01:17:38;99574.25;;;-8.65;83.59
42671;BME280;28283;55.426;37.756;2023-02-13T01:22:41;99567.88;;;-8.59;82.42
42671;BME280;28283;55.426;37.756;2023-02-13T01:27:44;99539.22;;;-8.59;82.46
42671;BME280;28283;55.426;37.756;2023-02-13T01:32:45;99546.47;;;-8.66;82.32
42671;BME280;28283;55.426;37.756;2023-02-13T01:37:47;99556.63;;;-8.59;83.15
42671;BME280;28283;55.426;37.756;2023-02-13T01:42:47;99543.50;;;-8.58;83.10
42671;BME280;28283;55.426;37.756;2023-02-13T01:52:56;99540.75;;;-8.55;83.16
42671;BME280;28283;55.426;37.756;2023-02-13T01:58:03;99506.25;;;-8.60;83.49
42671;BME280;28283;55.426;37.756;2023-02-13T02:03:13;99509.25;;;-8.50;82.61
42671;BME280;28283;55.426;37.756;2023-02-13T02:08:14;99496.59;;;-8.58;82.12
42671;BME280;28283;55.426;37.756;2023-02-13T02:13:20;99497.13;;;-8.51;83.10
42671;BME280;28283;55.426;37.756;2023-02-13T02:18:22;99490.16;;;-8.51;83.01
42671;BME280;28283;55.426;37.756;2023-02-13T02:45:39;99462.94;;;-8.29;82.81
42671;BME280;28283;55.426;37.756;2023-02-13T02:50:50;99459.34;;;-8.27;82.84
42671;BME280;28283;55.426;37.756;2023-02-13T03:01:17;99447.59;;;-8.18;83.10
42671;BME280;28283;55.426;37.756;2023-02-13T03:06:53;99425.72;;;-8.15;81.80
42671;BME280;28283;55.426;37.756;2023-02-13T03:11:55;99419.19;;;-8.07;82.94
42671;BME280;28283;55.426;37.756;2023-02-13T03:17:17;99403.47;;;-8.05;82.46
42671;BME280;28283;55.426;37.756;2023-02-13T03:22:41;99408.25;;;-7.97;82.81
42671;BME280;28283;55.426;37.756;2023-02-13T03:28:11;99416.94;;;-7.81;82.34
42671;BME280;28283;55.426;37.756;2023-02-13T03:49:16;99388.75;;;-7.74;82.25
42671;BME280;28283;55.426;37.756;2023-02-13T03:54:55;99384.97;;;-7.69;81.56
42671;BME280;28283;55.426;37.756;2023-02-13T04:00:17;99349.38;;;-7.85;82.03
42671;BME280;28283;55.426;37.756;2023-02-13T04:05:21;99349.75;;;-7.77;81.69
42671;BME280;28283;55.426;37.756;2023-02-13T04:10:26;99330.81;;;-7.81;82.68
42671;BME280;28283;55.426;37.756;2023-02-13T04:15:41;99325.09;;;-7.72;81.81
42671;BME280;28283;55.426;37.756;2023-02-13T04:20:45;99341.41;;;-7.68;83.13
42671;BME280;28283;55.426;37.756;2023-02-13T04:25:49;99314.19;;;-7.78;83.00
42671;BME280;28283;55.426;37.756;2023-02-13T04:30:51;99342.50;;;-7.56;83.06
42671;BME280;28283;55.426;37.756;2023-02-13T04:35:52;99313.88;;;-7.58;82.88
42671;BME280;28283;55.426;37.756;2023-02-13T04:40:52;99321.03;;;-7.45;82.42
42671;BME280;28283;55.426;37.756;2023-02-13T04:45:53;99299.00;;;-7.41;83.07
42671;BME280;28283;55.426;37.756;2023-02-13T04:50:54;99290.34;;;-7.42;82.93
42671;BME280;28283;55.426;37.756;2023-02-13T04:55:54;99273.78;;;-7.41;82.19
42671;BME280;28283;55.426;37.756;2023-02-13T05:00:55;99279.44;;;-7.34;82.96
42671;BME280;28283;55.426;37.756;2023-02-13T05:05:56;99245.56;;;-7.50;83.16
42671;BME280;28283;55.426;37.756;2023-02-13T05:10:56;99260.16;;;-7.32;82.40
42671;BME280;28283;55.426;37.756;2023-02-13T05:15:57;99247.84;;;-7.30;82.24
42671;BME280;28283;55.426;37.756;2023-02-13T05:20:57;99263.72;;;-7.18;83.51
42671;BME280;28283;55.426;37.756;2023-02-13T05:26:17;99227.91;;;-7.16;83.13
42671;BME280;28283;55.426;37.756;2023-02-13T05:31:17;99233.13;;;-7.02;82.77
42671;BME280;28283;55.426;37.756;2023-02-13T05:36:18;99221.50;;;-6.96;82.87
42671;BME280;28283;55.426;37.756;2023-02-13T05:41:19;99218.88;;;-6.96;82.87
42671;BME280;28283;55.426;37.756;2023-02-13T05:46:19;99212.78;;;-6.82;83.29
42671;BME280;28283;55.426;37.756;2023-02-13T05:51:20;99227.72;;;-6.70;82.87
42671;BME280;28283;55.426;37.756;2023-02-13T05:56:21;99210.91;;;-6.66;82.95
42671;BME280;28283;55.426;37.756;2023-02-13T06:01:22;99196.28;;;-6.68;83.42
42671;BME280;28283;55.426;37.756;2023-02-13T06:06:23;99220.81;;;-6.57;83.15
42671;BME280;28283;55.426;37.756;2023-02-13T06:11:24;99212.59;;;-6.50;83.09
42671;BME280;28283;55.426;37.756;2023-02-13T06:16:25;99208.47;;;-6.40;83.90
42671;BME280;28283;55.426;37.756;2023-02-13T06:21:26;99215.44;;;-6.41;83.75
42671;BME280;28283;55.426;37.756;2023-02-13T06:26:27;99210.31;;;-6.28;83.57
42671;BME280;28283;55.426;37.756;2023-02-13T06:31:27;99211.38;;;-6.18;83.68
42671;BME280;28283;55.426;37.756;2023-02-13T06:36:28;99202.41;;;-6.13;83.65
42671;BME280;28283;55.426;37.756;2023-02-13T06:41:29;99206.72;;;-6.00;83.98
42671;BME280;28283;55.426;37.756;2023-02-13T06:46:29;99194.16;;;-5.95;83.88
42671;BME280;28283;55.426;37.756;2023-02-13T06:51:30;99167.38;;;-5.98;84.00
42671;BME280;28283;55.426;37.756;2023-02-13T06:56:31;99186.34;;;-5.69;83.46
42671;BME280;28283;55.426;37.756;2023-02-13T07:01:32;99163.31;;;-5.64;83.48
42671;BME280;28283;55.426;37.756;2023-02-13T07:06:32;99131.81;;;-5.49;82.65
42671;BME280;28283;55.426;37.756;2023-02-13T07:11:33;99160.50;;;-5.35;83.03
42671;BME280;28283;55.426;37.756;2023-02-13T07:16:34;99162.72;;;-5.16;82.67
42671;BME280;28283;55.426;37.756;2023-02-13T07:21:35;99132.72;;;-5.12;82.38
42671;BME280;28283;55.426;37.756;2023-02-13T07:26:37;99142.78;;;-4.93;81.57
42671;BME280;28283;55.426;37.756;2023-02-13T07:31:38;99140.28;;;-5.07;82.97
42671;BME280;28283;55.426;37.756;2023-02-13T07:36:39;99072.72;;;-5.41;82.98
42671;BME280;28283;55.426;37.756;2023-02-13T07:41:39;99127.56;;;-4.88;82.79
42671;BME280;28283;55.426;37.756;2023-02-13T07:46:40;99126.41;;;-4.84;82.52
42671;BME280;28283;55.426;37.756;2023-02-13T07:51:41;99102.63;;;-4.93;82.96
42671;BME280;28283;55.426;37.756;2023-02-13T07:56:41;99101.72;;;-4.68;83.62
42671;BME280;28283;55.426;37.756;2023-02-13T08:01:42;99104.50;;;-4.58;83.20
42671;BME280;28283;55.426;37.756;2023-02-13T08:06:42;99085.47;;;-4.49;83.01
42671;BME280;28283;55.426;37.756;2023-02-13T08:11:43;99094.50;;;-4.29;83.18
42671;BME280;28283;55.426;37.756;2023-02-13T08:16:53;99074.25;;;-4.51;84.28
42671;BME280;28283;55.426;37.756;2023-02-13T08:21:54;99088.59;;;-4.44;84.96
42671;BME280;28283;55.426;37.756;2023-02-13T08:26:55;99078.94;;;-4.19;84.69
42671;BME280;28283;55.426;37.756;2023-02-13T08:31:56;99073.88;;;-4.34;85.29
42671;BME280;28283;55.426;37.756;2023-02-13T08:37:00;99060.28;;;-4.28;85.83
42671;BME280;28283;55.426;37.756;2023-02-13T08:42:02;99052.91;;;-4.23;86.40
42671;BME280;28283;55.426;37.756;2023-02-13T08:47:02;99032.38;;;-4.29;86.71
42671;BME280;28283;55.426;37.756;2023-02-13T08:52:03;99033.63;;;-3.99;85.99
42671;BME280;28283;55.426;37.756;2023-02-13T08:57:06;99036.47;;;-4.02;85.76
42671;BME280;28283;55.426;37.756;2023-02-13T09:02:11;99025.09;;;-3.78;85.20
42671;BME280;28283;55.426;37.756;2023-02-13T09:07:12;99022.19;;;-3.87;85.19
42671;BME280;28283;55.426;37.756;2023-02-13T09:12:12;99013.59;;;-3.66;85.83
42671;BME280;28283;55.426;37.756;2023-02-13T09:17:16;99011.81;;;-3.54;85.39
42671;BME280;28283;55.426;37.756;2023-02-13T09:22:18;98980.41;;;-3.56;85.71
42671;BME280;28283;55.426;37.756;2023-02-13T09:27:19;98996.38;;;-3.25;85.94
42671;BME280;28283;55.426;37.756;2023-02-13T09:32:20;98983.03;;;-3.33;86.71
42671;BME280;28283;55.426;37.756;2023-02-13T09:37:20;98984.09;;;-3.24;86.32
42671;BME280;28283;55.426;37.756;2023-02-13T09:42:28;98966.28;;;-3.32;87.12
42671;BME280;28283;55.426;37.756;2023-02-13T09:47:33;98964.03;;;-3.26;87.70
42671;BME280;28283;55.426;37.756;2023-02-13T09:52:36;98949.81;;;-3.23;87.73
42671;BME280;28283;55.426;37.756;2023-02-13T09:57:43;98933.56;;;-3.28;88.37
42671;BME280;28283;55.426;37.756;2023-02-13T10:13:30;98918.28;;;-2.70;88.39
42671;BME280;28283;55.426;37.756;2023-02-13T10:18:50;98922.53;;;-2.57;86.41
42671;BME280;28283;55.426;37.756;2023-02-13T10:24:01;98912.47;;;-2.31;86.16
42671;BME280;28283;55.426;37.756;2023-02-13T10:29:54;98905.91;;;-2.58;86.34
42671;BME280;28283;55.426;37.756;2023-02-13T10:34:48;98903.53;;;-2.40;86.37
42671;BME280;28283;55.426;37.756;2023-02-13T10:39:51;98880.91;;;-2.21;85.76
42671;BME280;28283;55.426;37.756;2023-02-13T10:50:09;98871.41;;;-2.34;86.32
42671;BME280;28283;55.426;37.756;2023-02-13T11:00:26;98866.81;;;-2.11;87.11
42671;BME280;28283;55.426;37.756;2023-02-13T11:05:35;98854.66;;;-2.33;87.23
42671;BME280;28283;55.426;37.756;2023-02-13T11:10:39;98846.22;;;-2.26;88.08
42671;BME280;28283;55.426;37.756;2023-02-13T11:15:39;98837.69;;;-2.19;87.64
42671;BME280;28283;55.426;37.756;2023-02-13T11:20:41;98832.19;;;-2.06;87.79
42671;BME280;28283;55.426;37.756;2023-02-13T11:26:03;98819.72;;;-2.04;88.47
42671;BME280;28283;55.426;37.756;2023-02-13T11:36:14;98814.09;;;-1.89;88.28
42671;BME280;28283;55.426;37.756;2023-02-13T11:41:22;98818.63;;;-2.01;89.11
42671;BME280;28283;55.426;37.756;2023-02-13T11:46:27;98811.75;;;-1.73;88.54
42671;BME280;28283;55.426;37.756;2023-02-13T11:51:44;98806.50;;;-1.73;87.98
42671;BME280;28283;55.426;37.756;2023-02-13T11:56:53;98812.63;;;-1.63;88.40
42671;BME280;28283;55.426;37.756;2023-02-13T12:02:13;98781.25;;;-1.66;88.90
42671;BME280;28283;55.426;37.756;2023-02-13T12:07:34;98776.00;;;-1.37;88.59
42671;BME280;28283;55.426;37.756;2023-02-13T12:12:38;98756.84;;;-1.68;88.42
42671;BME280;28283;55.426;37.756;2023-02-13T12:17:41;98773.50;;;-1.48;89.12
42671;BME280;28283;55.426;37.756;2023-02-13T12:22:58;98752.41;;;-1.48;88.94
42671;BME280;28283;55.426;37.756;2023-02-13T12:28:19;98764.34;;;-1.24;88.64
42671;BME280;28283;55.426;37.756;2023-02-13T12:49:43;98756.00;;;-1.00;87.09
42671;BME280;28283;55.426;37.756;2023-02-13T13:16:54;98704.53;;;-0.77;87.23
42671;BME280;28283;55.426;37.756;2023-02-13T13:27:17;98688.44;;;-0.73;86.44
42671;BME280;28283;55.426;37.756;2023-02-13T13:32:20;98703.38;;;-0.64;86.30
42671;BME280;28283;55.426;37.756;2023-02-13T13:42:39;98695.47;;;-0.36;84.91
42671;BME280;28283;55.426;37.756;2023-02-13T13:48:26;98680.53;;;-0.28;84.63
42671;BME280;28283;55.426;37.756;2023-02-13T13:53:31;98691.88;;;-0.45;85.19
42671;BME280;28283;55.426;37.756;2023-02-13T13:58:35;98695.22;;;-0.43;85.52
42671;BME280;28283;55.426;37.756;2023-02-13T14:03:36;98683.56;;;-0.23;84.62
42671;BME280;28283;55.426;37.756;2023-02-13T14:13:40;98660.91;;;-0.25;84.25
42671;BME280;28283;55.426;37.756;2023-02-13T14:18:45;98665.06;;;-0.41;85.03
42671;BME280;28283;55.426;37.756;2023-02-13T14:23:47;98674.78;;;-0.41;85.63
42671;BME280;28283;55.426;37.756;2023-02-13T14:39:07;98650.53;;;-0.54;86.93
42671;BME280;28283;55.426;37.756;2023-02-13T14:49:27;98642.72;;;-0.46;88.30
42671;BME280;28283;55.426;37.756;2023-02-13T14:54:32;98646.47;;;-0.77;88.65
42671;BME280;28283;55.426;37.756;2023-02-13T14:59:35;98632.28;;;-0.75;89.05
42671;BME280;28283;55.426;37.756;2023-02-13T15:04:45;98619.28;;;-0.77;89.31
42671;BME280;28283;55.426;37.756;2023-02-13T15:09:50;98553.75;;;-1.09;89.49
42671;BME280;28283;55.426;37.756;2023-02-13T15:14:52;98585.53;;;-0.55;88.72
42671;BME280;28283;55.426;37.756;2023-02-13T15:19:54;98589.63;;;-0.71;89.51
42671;BME280;28283;55.426;37.756;2023-02-13T15:24:55;98581.28;;;-0.66;89.62
42671;BME280;28283;55.426;37.756;2023-02-13T15:40:30;98545.66;;;-0.80;90.86
42671;BME280;28283;55.426;37.756;2023-02-13T15:45:31;98515.44;;;-0.86;90.78
42671;BME280;28283;55.426;37.756;2023-02-13T15:50:34;98534.84;;;-0.77;90.38
42671;BME280;28283;55.426;37.756;2023-02-13T15:55:35;98530.59;;;-0.88;90.94
42671;BME280;28283;55.426;37.756;2023-02-13T16:00:40;98503.09;;;-0.67;90.82
42671;BME280;28283;55.426;37.756;2023-02-13T16:05:41;98500.66;;;-0.79;90.89
42671;BME280;28283;55.426;37.756;2023-02-13T16:10:44;98493.44;;;-0.59;90.02
42671;BME280;28283;55.426;37.756;2023-02-13T16:15:44;98484.31;;;-0.46;90.00
42671;BME280;28283;55.426;37.756;2023-02-13T16:20:45;98463.78;;;-0.70;90.49
42671;BME280;28283;55.426;37.756;2023-02-13T16:25:51;98472.31;;;-0.41;90.22
42671;BME280;28283;55.426;37.756;2023-02-13T16:31:01;98473.34;;;-0.33;90.26
42671;BME280;28283;55.426;37.756;2023-02-13T16:57:03;98430.06;;;-0.41;91.19
42671;BME280;28283;55.426;37.756;2023-02-13T17:07:28;98423.91;;;-0.23;91.04
42671;BME280;28283;55.426;37.756;2023-02-13T17:12:37;98398.81;;;-0.45;91.61
42671;BME280;28283;55.426;37.756;2023-02-13T17:17:38;98380.38;;;-0.63;92.51
42671;BME280;28283;55.426;37.756;2023-02-13T17:22:41;98378.44;;;-0.35;91.97
42671;BME280;28283;55.426;37.756;2023-02-13T17:27:43;98361.97;;;-0.55;92.30
42671;BME280;28283;55.426;37.756;2023-02-13T17:32:44;98355.63;;;-0.44;91.62
42671;BME280;28283;55.426;37.756;2023-02-13T17:37:46;98347.19;;;-0.48;91.70
42671;BME280;28283;55.426;37.756;2023-02-13T17:42:49;98340.91;;;-0.21;91.60
42671;BME280;28283;55.426;37.756;2023-02-13T17:47:50;98332.53;;;-0.42;91.90
42671;BME280;28283;55.426;37.756;2023-02-13T17:52:51;98317.44;;;-0.24;92.18
42671;BME280;28283;55.426;37.756;2023-02-13T17:57:53;98317.91;;;-0.28;93.17
42671;BME280;28283;55.426;37.756;2023-02-13T18:02:56;98295.88;;;-0.45;92.21
42671;BME280;28283;55.426;37.756;2023-02-13T18:07:57;98282.44;;;-0.26;92.97
42671;BME280;28283;55.426;37.756;2023-02-13T18:12:58;98285.75;;;-0.24;92.13
42671;BME280;28283;55.426;37.756;2023-02-13T18:18:03;98283.22;;;-0.33;93.04
42671;BME280;28283;55.426;37.756;2023-02-13T18:23:04;98263.69;;;-0.06;92.84
42671;BME280;28283;55.426;37.756;2023-02-13T18:28:06;98260.94;;;-0.39;93.02
42671;BME280;28283;55.426;37.756;2023-02-13T18:33:07;98231.69;;;-0.46;93.75
42671;BME280;28283;55.426;37.756;2023-02-13T18:38:07;98226.81;;;-0.24;93.27
42671;BME280;28283;55.426;37.756;2023-02-13T18:43:08;98233.22;;;-0.35;93.77
42671;BME280;28283;55.426;37.756;2023-02-13T18:48:09;98235.59;;;-0.15;93.61
42671;BME280;28283;55.426;37.756;2023-02-13T18:53:10;98211.38;;;-0.03;93.70
42671;BME280;28283;55.426;37.756;2023-02-13T18:58:10;98199.75;;;-0.26;93.36
42671;BME280;28283;55.426;37.756;2023-02-13T19:03:11;98196.06;;;0.09;93.08
42671;BME280;28283;55.426;37.756;2023-02-13T19:08:12;98175.03;;;-0.01;93.44
42671;BME280;28283;55.426;37.756;2023-02-13T19:13:13;98148.59;;;-0.17;93.89
42671;BME280;28283;55.426;37.756;2023-02-13T19:18:13;98164.50;;;0.08;93.58
42671;BME280;28283;55.426;37.756;2023-02-13T19:23:14;98155.22;;;-0.13;94.12
42671;BME280;28283;55.426;37.756;2023-02-13T19:28:15;98158.41;;;0.07;94.15
42671;BME280;28283;55.426;37.756;2023-02-13T19:33:15;98154.56;;;-0.07;94.35
42671;BME280;28283;55.426;37.756;2023-02-13T19:38:16;98119.56;;;-0.09;94.71
42671;BME280;28283;55.426;37.756;2023-02-13T19:43:17;98135.91;;;0.03;94.37
42671;BME280;28283;55.426;37.756;2023-02-13T19:48:17;98110.50;;;0.02;94.40
42671;BME280;28283;55.426;37.756;2023-02-13T19:53:18;98120.56;;;-0.02;94.51
42671;BME280;28283;55.426;37.756;2023-02-13T19:58:19;98101.41;;;0.05;94.91
42671;BME280;28283;55.426;37.756;2023-02-13T20:03:19;98110.00;;;-0.02;95.11
42671;BME280;28283;55.426;37.756;2023-02-13T20:08:20;98102.72;;;0.09;95.16
42671;BME280;28283;55.426;37.756;2023-02-13T20:13:20;98108.50;;;0.12;94.95
42671;BME280;28283;55.426;37.756;2023-02-13T20:18:21;98088.38;;;0.03;95.32
42671;BME280;28283;55.426;37.756;2023-02-13T20:23:21;98072.34;;;0.05;95.90
42671;BME280;28283;55.426;37.756;2023-02-13T20:28:22;98106.06;;;0.11;95.82
42671;BME280;28283;55.426;37.756;2023-02-13T20:33:23;98057.34;;;-0.03;96.12
42671;BME280;28283;55.426;37.756;2023-02-13T20:38:24;98077.31;;;0.32;95.79
42671;BME280;28283;55.426;37.756;2023-02-13T20:43:25;98086.72;;;0.18;95.78
42671;BME280;28283;55.426;37.756;2023-02-13T20:48:26;98081.13;;;0.22;95.87
42671;BME280;28283;55.426;37.756;2023-02-13T20:53:28;98092.16;;;0.17;96.52
42671;BME280;28283;55.426;37.756;2023-02-13T20:58:30;98101.09;;;0.24;96.35
42671;BME280;28283;55.426;37.756;2023-02-13T21:03:31;98106.22;;;0.26;96.41
42671;BME280;28283;55.426;37.756;2023-02-13T21:08:35;98097.78;;;0.14;96.65
42671;BME280;28283;55.426;37.756;2023-02-13T21:13:35;98106.03;;;0.44;96.30
42671;BME280;28283;55.426;37.756;2023-02-13T21:18:37;98071.53;;;0.04;96.30
42671;BME280;28283;55.426;37.756;2023-02-13T21:23:38;98105.53;;;0.32;96.15
42671;BME280;28283;55.426;37.756;2023-02-13T21:28:39;98112.31;;;0.51;95.94
42671;BME280;28283;55.426;37.756;2023-02-13T21:33:40;98077.78;;;0.19;95.46
42671;BME280;28283;55.426;37.756;2023-02-13T21:38:41;98086.19;;;0.48;93.60
42671;BME280;28283;55.426;37.756;2023-02-13T21:43:42;98111.44;;;0.75;92.35
42671;BME280;28283;55.426;37.756;2023-02-13T21:48:46;98118.56;;;0.58;92.33
42671;BME280;28283;55.426;37.756;2023-02-13T21:53:48;98117.41;;;0.61;91.76
42671;BME280;28283;55.426;37.756;2023-02-13T21:58:53;98116.59;;;0.60;89.78
42671;BME280;28283;55.426;37.756;2023-02-13T22:03:55;98124.19;;;0.63;90.07
42671;BME280;28283;55.426;37.756;2023-02-13T22:09:15;98132.09;;;0.71;89.27
42671;BME280;28283;55.426;37.756;2023-02-13T22:14:17;98105.81;;;0.78;88.33
42671;BME280;28283;55.426;37.756;2023-02-13T22:19:17;98109.56;;;0.92;87.18
42671;BME280;28283;55.426;37.756;2023-02-13T22:24:23;98112.28;;;0.67;87.53
42671;BME280;28283;55.426;37.756;2023-02-13T22:29:24;98076.38;;;0.73;87.51
42671;BME280;28283;55.426;37.756;2023-02-13T22:34:28;98119.72;;;0.72;87.23
42671;BME280;28283;55.426;37.756;2023-02-13T22:39:28;98123.16;;;0.81;86.80
42671;BME280;28283;55.426;37.756;2023-02-13T22:44:29;98112.56;;;0.81;86.94
42671;BME280;28283;55.426;37.756;2023-02-13T22:49:30;98089.81;;;0.63;86.87
42671;BME280;28283;55.426;37.756;2023-02-13T22:54:30;98088.34;;;0.52;87.33
42671;BME280;28283;55.426;37.756;2023-02-13T22:59:31;98115.44;;;0.54;88.81
42671;BME280;28283;55.426;37.756;2023-02-13T23:04:36;98114.63;;;0.54;88.75
42671;BME280;28283;55.426;37.756;2023-02-13T23:09:37;98132.44;;;0.52;88.70
42671;BME280;28283;55.426;37.756;2023-02-13T23:14:37;98142.38;;;0.33;87.87
42671;BME280;28283;55.426;37.756;2023-02-13T23:19:38;98140.91;;;0.47;88.04
42671;BME280;28283;55.426;37.756;2023-02-13T23:24:39;98139.41;;;0.53;87.21
42671;BME280;28283;55.426;37.756;2023-02-13T23:29:39;98149.31;;;0.51;86.54
42671;BME280;28283;55.426;37.756;2023-02-13T23:34:40;98143.88;;;0.44;86.72
42671;BME280;28283;55.426;37.756;2023-02-13T23:39:40;98126.84;;;0.30;85.68
42671;BME280;28283;55.426;37.756;2023-02-13T23:44:41;98122.88;;;0.51;84.75
42671;BME280;28283;55.426;37.756;2023-02-13T23:49:42;98124.47;;;0.76;83.21
42671;BME280;28283;55.426;37.756;2023-02-13T23:54:42;98126.50;;;0.58;82.38
42671;BME280;28283;55.426;37.756;2023-02-13T23:59:45;98169.44;;;0.76;81.76
